Time;durP1;ratioP1;P1;durP2;ratioP2;P2;SDS_P1;SDS_P2;PMS_P1;PMS_P2;Temp;Humidity;BMP_temperature;BMP_pressure;BME280_temperature;BME280_humidity;BME280_pressure;Samples;Min_cycle;Max_cycle;Signal;HPM_P1;HPM_P2
2023/07/19 00:00:24;;;;;;;14.65;8.65;;;;;;;17.20;99.80;95911.75;2090595;28;20037;-58
2023/07/19 00:01:25;;;;;;;15.48;7.93;;;;;;;17.21;100.00;95894.22;2090422;28;20157;-58
2023/07/19 00:02:27;;;;;;;11.00;7.65;;;;;;;17.26;100.00;95893.88;2090500;28;20052;-58
2023/07/19 00:03:28;;;;;;;10.82;7.70;;;;;;;17.30;100.00;95904.03;2090635;28;20040;-59
2023/07/19 00:04:29;;;;;;;15.55;8.25;;;;;;;17.34;99.56;95902.00;2090502;28;20053;-58
2023/07/19 00:05:30;;;;;;;15.70;8.27;;;;;;;17.34;99.81;95897.59;2090048;28;20508;-58
2023/07/19 00:06:31;;;;;;;13.05;8.77;;;;;;;17.39;99.60;95902.50;2090540;28;20369;-59
2023/07/19 00:07:32;;;;;;;16.95;8.05;;;;;;;17.35;100.00;95896.66;2090778;28;20049;-58
2023/07/19 00:08:33;;;;;;;15.00;8.63;;;;;;;17.47;99.46;95905.38;2090533;28;20052;-58
2023/07/19 00:09:35;;;;;;;11.27;8.10;;;;;;;17.49;99.67;95906.09;2090341;28;20052;-59
2023/07/19 00:10:36;;;;;;;15.55;8.45;;;;;;;17.54;99.64;95908.38;2090678;28;20476;-59
2023/07/19 00:11:37;;;;;;;15.32;9.65;;;;;;;17.55;98.89;95904.81;2090864;28;20049;-59
2023/07/19 00:12:38;;;;;;;15.50;8.50;;;;;;;17.59;99.79;95901.00;2090822;28;20049;-58
2023/07/19 00:13:39;;;;;;;13.50;8.75;;;;;;;17.54;99.68;95888.22;2091033;28;20350;-58
2023/07/19 00:14:41;;;;;;;12.73;8.85;;;;;;;17.66;99.64;95906.59;2090407;28;20033;-59
2023/07/19 00:15:42;;;;;;;15.02;8.82;;;;;;;17.66;99.08;95899.56;2090289;28;20055;-59
2023/07/19 00:16:43;;;;;;;13.30;9.05;;;;;;;17.64;99.17;95891.81;2090707;28;20115;-59
2023/07/19 00:17:44;;;;;;;13.70;9.40;;;;;;;17.68;98.45;95897.66;2090160;28;20045;-59
2023/07/19 00:18:46;;;;;;;14.55;8.82;;;;;;;17.72;98.33;95893.84;2089737;28;20056;-59
2023/07/19 00:19:47;;;;;;;15.50;8.55;;;;;;;17.75;98.93;95898.88;2088918;28;20509;-59
2023/07/19 00:20:48;;;;;;;14.95;8.50;;;;;;;17.77;98.57;95904.81;2090229;28;20037;-58
2023/07/19 00:21:49;;;;;;;14.20;8.75;;;;;;;17.80;98.58;95899.38;2089720;28;20053;-58
2023/07/19 00:22:50;;;;;;;15.05;9.07;;;;;;;17.81;98.18;95898.41;2089762;28;20060;-59
2023/07/19 00:23:52;;;;;;;14.50;8.45;;;;;;;17.83;98.37;95904.38;2090163;28;20064;-58
2023/07/19 00:24:53;;;;;;;15.68;8.73;;;;;;;17.85;98.15;95904.25;2090295;28;20057;-59
2023/07/19 00:25:54;;;;;;;14.65;8.43;;;;;;;17.88;97.62;95903.19;2090298;28;20347;-59
2023/07/19 00:26:56;;;;;;;14.13;8.07;;;;;;;17.89;97.00;95897.00;2090165;28;20057;-59
2023/07/19 00:27:57;;;;;;;16.65;8.05;;;;;;;17.92;97.62;95899.38;2089288;28;20056;-59
2023/07/19 00:28:58;;;;;;;18.48;8.48;;;;;;;17.94;96.74;95902.72;2089703;28;20041;-59
2023/07/19 00:30:00;;;;;;;13.32;8.35;;;;;;;17.96;96.47;95906.91;2090186;28;20052;-59
2023/07/19 00:31:02;;;;;;;13.15;8.27;;;;;;;18.01;96.76;95909.16;2090147;28;20041;-59
2023/07/19 00:32:04;;;;;;;14.10;8.40;;;;;;;18.02;96.53;95906.41;2089716;28;20053;-58
2023/07/19 00:33:05;;;;;;;13.63;8.18;;;;;;;18.03;96.41;95907.25;2088881;28;20048;-59
2023/07/19 00:34:08;;;;;;;15.02;8.02;;;;;;;17.94;95.47;95886.97;2090223;28;20040;-59
2023/07/19 00:35:10;;;;;;;14.55;8.57;;;;;;;18.01;95.64;95898.63;2089528;28;20397;-59
2023/07/19 00:36:11;;;;;;;16.52;7.90;;;;;;;18.07;95.41;95900.81;2089647;28;20055;-58
2023/07/19 00:37:12;;;;;;;12.05;8.25;;;;;;;18.06;95.05;95901.75;2090912;28;20064;-59
2023/07/19 00:38:14;;;;;;;16.90;8.45;;;;;;;18.06;94.74;95901.75;2090142;28;20385;-58
2023/07/19 00:39:15;;;;;;;13.93;8.20;;;;;;;18.02;94.20;95892.44;2088509;28;20059;-58
2023/07/19 00:40:16;;;;;;;15.27;8.60;;;;;;;18.07;94.28;95890.28;2089453;28;20063;-59
2023/07/19 00:41:18;;;;;;;12.57;8.15;;;;;;;18.12;94.62;95898.63;2089831;28;20045;-59
2023/07/19 00:42:19;;;;;;;17.30;9.13;;;;;;;18.13;94.59;95892.44;2090075;28;20063;-58
2023/07/19 00:43:20;;;;;;;11.77;8.10;;;;;;;18.15;94.17;95895.78;2090066;28;20059;-58
2023/07/19 00:44:21;;;;;;;12.98;8.60;;;;;;;18.17;94.08;95896.47;2089695;28;20504;-59
2023/07/19 00:45:24;;;;;;;17.13;8.15;;;;;;;18.18;93.74;95900.78;2089515;28;20061;-58
2023/07/19 00:46:25;;;;;;;14.48;7.90;;;;;;;18.19;94.27;95899.81;2090018;28;20064;-59
2023/07/19 00:47:27;;;;;;;13.77;8.15;;;;;;;18.20;93.73;95906.75;2090247;28;20048;-59
2023/07/19 00:48:28;;;;;;;14.80;9.10;;;;;;;18.21;94.01;95902.34;2089835;28;20057;-59
2023/07/19 00:49:31;;;;;;;13.63;8.43;;;;;;;18.16;94.15;95894.81;2089045;28;20053;-58
2023/07/19 00:50:33;;;;;;;13.30;8.52;;;;;;;18.22;93.84;95896.94;2081622;28;20037;-59
2023/07/19 00:51:34;;;;;;;16.77;8.68;;;;;;;18.13;93.80;95886.34;2089370;28;20496;-59
2023/07/19 00:52:35;;;;;;;13.10;9.00;;;;;;;18.22;93.85;95899.56;2081446;28;20053;-59
2023/07/19 00:53:38;;;;;;;11.05;8.50;;;;;;;18.23;94.39;95898.63;2081468;28;20149;-59
2023/07/19 00:54:39;;;;;;;12.75;8.77;;;;;;;18.21;93.89;95892.66;2089343;28;20060;-58
2023/07/19 00:55:40;;;;;;;17.67;9.20;;;;;;;18.24;94.03;95895.03;2081101;28;20053;-59
2023/07/19 00:56:41;;;;;;;14.93;8.52;;;;;;;18.24;94.44;95892.41;2089126;28;20489;-59
2023/07/19 00:57:45;;;;;;;14.82;8.95;;;;;;;18.25;94.07;95896.69;2072867;28;20049;-59
2023/07/19 00:58:48;;;;;;;15.50;8.55;;;;;;;18.25;94.19;95894.06;2057519;28;20083;-59
2023/07/19 00:59:49;;;;;;;15.27;9.15;;;;;;;18.28;94.07;95896.47;2081404;28;20053;-58
2023/07/19 01:00:51;;;;;;;15.30;8.88;;;;;;;18.28;93.85;95903.50;2089142;28;20060;-59
2023/07/19 01:01:52;;;;;;;16.08;8.25;;;;;;;18.28;93.68;95899.09;2089921;28;20041;-58
2023/07/19 01:02:53;;;;;;;13.02;8.02;;;;;;;18.27;93.54;95900.03;2088991;28;20061;-58
2023/07/19 01:03:55;;;;;;;13.40;7.97;;;;;;;18.27;92.73;95888.69;2081158;28;20511;-59
2023/07/19 01:04:57;;;;;;;15.55;8.57;;;;;;;18.23;92.77;95889.88;2088842;28;20064;-59
2023/07/19 01:05:58;;;;;;;11.68;7.57;;;;;;;18.19;92.74;95884.06;2090244;28;20048;-59
2023/07/19 01:07:01;;;;;;;15.43;7.70;;;;;;;18.17;93.06;95893.84;2088673;28;20056;-59
2023/07/19 01:08:02;;;;;;;13.77;8.18;;;;;;;18.16;92.63;95886.94;2080779;28;20057;-59
2023/07/19 01:09:04;;;;;;;13.27;8.05;;;;;;;18.20;92.74;95890.13;2081761;28;20096;-59
2023/07/19 01:10:06;;;;;;;12.70;7.68;;;;;;;18.20;93.16;95893.63;2089315;28;20081;-59
2023/07/19 01:11:07;;;;;;;12.13;7.30;;;;;;;18.21;92.38;95895.28;2089408;28;20440;-58
2023/07/19 01:12:09;;;;;;;12.60;8.00;;;;;;;18.20;92.50;95893.63;2089333;28;20048;-58
2023/07/19 01:13:11;;;;;;;13.57;8.10;;;;;;;18.20;91.90;95896.25;2089350;28;20052;-58
2023/07/19 01:14:12;;;;;;;13.63;8.00;;;;;;;18.20;92.35;95893.63;2089410;28;20404;-58
2023/07/19 01:15:13;;;;;;;13.38;8.05;;;;;;;18.18;92.31;95892.91;2080761;28;20053;-59
2023/07/19 01:16:14;;;;;;;12.88;8.55;;;;;;;18.18;93.16;95902.59;2089179;28;20052;-59
2023/07/19 01:17:15;;;;;;;15.52;8.90;;;;;;;18.14;92.88;95893.25;2089168;28;20049;-59
2023/07/19 01:18:19;;;;;;;14.52;8.48;;;;;;;18.12;92.83;95898.63;2089374;28;20057;-58
2023/07/19 01:19:20;;;;;;;12.55;8.43;;;;;;;18.09;92.67;95890.97;2089259;28;20044;-58
2023/07/19 01:20:21;;;;;;;14.43;9.00;;;;;;;17.99;92.92;95879.53;2089216;28;20417;-59
2023/07/19 01:21:22;;;;;;;13.73;8.68;;;;;;;18.02;93.08;95884.56;2090151;28;20057;-59
2023/07/19 01:22:28;;;;;;;14.88;8.23;;;;;;;17.96;92.80;95880.63;2089519;28;20061;-59
2023/07/19 01:23:29;;;;;;;14.25;8.25;;;;;;;17.95;92.80;95892.06;2089516;28;20052;-59
2023/07/19 01:24:30;;;;;;;12.30;8.23;;;;;;;17.93;93.11;95890.53;2081053;28;20049;-58
2023/07/19 01:25:31;;;;;;;13.75;8.27;;;;;;;17.93;93.52;95895.78;2080687;28;20053;-59
2023/07/19 01:26:33;;;;;;;11.25;8.00;;;;;;;17.88;93.98;95888.25;2089906;28;20057;-59
2023/07/19 01:27:34;;;;;;;13.15;8.85;;;;;;;17.93;93.77;95895.78;2089097;28;20056;-59
2023/07/19 01:28:35;;;;;;;14.65;9.40;;;;;;;17.92;93.96;95894.13;2089552;28;20045;-58
2023/07/19 01:29:36;;;;;;;13.10;9.13;;;;;;;17.90;94.31;95891.59;2089784;28;20405;-59
2023/07/19 01:30:37;;;;;;;13.52;8.80;;;;;;;17.81;94.39;95877.41;2089335;28;20048;-58
2023/07/19 01:31:38;;;;;;;14.15;9.35;;;;;;;17.80;94.44;95878.38;2089722;28;20053;-59
2023/07/19 01:32:40;;;;;;;13.73;8.95;;;;;;;17.78;95.03;95872.34;2088674;28;20456;-59
2023/07/19 01:33:42;;;;;;;13.15;9.15;;;;;;;17.88;94.97;95890.88;2088892;28;20049;-59
2023/07/19 01:34:43;;;;;;;16.95;9.27;;;;;;;17.88;94.96;95883.00;2089796;28;20037;-59
2023/07/19 01:35:44;;;;;;;13.95;8.95;;;;;;;17.81;95.51;95872.16;2090495;28;20064;-58
2023/07/19 01:36:46;;;;;;;12.95;9.32;;;;;;;17.93;95.96;95880.84;2089485;28;20049;-58
2023/07/19 01:37:47;;;;;;;15.60;9.02;;;;;;;17.85;95.39;95876.22;2088932;28;20057;-58
2023/07/19 01:38:48;;;;;;;16.33;8.85;;;;;;;17.95;95.49;95889.44;2088832;28;20053;-58
2023/07/19 01:39:49;;;;;;;15.98;9.85;;;;;;;17.95;95.74;95894.69;2089796;28;20048;-58
2023/07/19 01:40:50;;;;;;;14.52;9.18;;;;;;;17.96;95.58;95891.13;2089087;28;20048;-58
2023/07/19 01:41:51;;;;;;;12.40;8.38;;;;;;;17.96;95.18;95891.13;2089205;28;20507;-58
2023/07/19 01:42:52;;;;;;;13.48;8.32;;;;;;;17.97;93.82;95886.72;2089748;28;20048;-58
2023/07/19 01:43:54;;;;;;;15.48;9.35;;;;;;;17.97;94.31;95894.59;2089210;28;20052;-58
2023/07/19 01:44:56;;;;;;;13.10;9.27;;;;;;;17.97;94.97;95891.97;2080915;28;20058;-58
2023/07/19 01:45:59;;;;;;;12.48;8.88;;;;;;;17.96;94.64;95896.41;2088739;28;20056;-58
2023/07/19 01:47:00;;;;;;;15.90;10.20;;;;;;;17.96;94.88;95900.78;2088907;28;20056;-58
2023/07/19 01:48:01;;;;;;;15.73;9.38;;;;;;;17.97;94.95;95905.09;2089571;28;20060;-58
2023/07/19 01:49:02;;;;;;;16.70;9.75;;;;;;;17.93;95.54;95901.84;2090084;28;20358;-58
2023/07/19 01:50:04;;;;;;;15.13;9.38;;;;;;;17.84;95.81;95886.84;2088817;28;20056;-58
2023/07/19 01:51:05;;;;;;;16.13;9.38;;;;;;;17.95;95.26;95899.13;2089043;28;20057;-58
2023/07/19 01:52:07;;;;;;;15.02;10.02;;;;;;;17.94;95.53;95893.03;2088479;28;20044;-58
2023/07/19 01:53:08;;;;;;;13.65;9.25;;;;;;;17.95;95.55;95888.63;2088866;28;20055;-58
2023/07/19 01:54:11;;;;;;;18.52;10.23;;;;;;;17.94;95.50;95889.59;2089093;28;20509;-58
2023/07/19 01:55:13;;;;;;;14.35;9.68;;;;;;;17.92;94.77;95888.88;2089312;28;20064;-58
2023/07/19 01:56:14;;;;;;;15.18;9.52;;;;;;;17.91;96.24;95888.03;2090373;28;20057;-58
2023/07/19 01:57:15;;;;;;;15.27;10.10;;;;;;;17.88;95.96;95890.88;2089033;28;20045;-58
2023/07/19 01:58:16;;;;;;;16.27;10.23;;;;;;;17.84;96.27;95881.56;2081306;28;20473;-58
2023/07/19 01:59:18;;;;;;;15.48;10.18;;;;;;;17.85;95.42;95886.72;2089215;28;20048;-58
2023/07/19 02:00:19;;;;;;;13.77;9.05;;;;;;;17.82;95.62;95883.47;2089025;28;20041;-58
2023/07/19 02:01:21;;;;;;;21.30;9.82;;;;;;;17.84;95.75;95898.16;2089893;28;20389;-58
2023/07/19 02:02:22;;;;;;;16.27;9.57;;;;;;;17.84;95.75;95889.47;2089692;28;20057;-58
2023/07/19 02:03:23;;;;;;;14.32;9.77;;;;;;;17.84;96.12;95889.47;2089094;28;20057;-58
2023/07/19 02:04:26;;;;;;;12.30;9.05;;;;;;;17.81;95.58;95881.81;2081525;28;20072;-58
2023/07/19 02:05:27;;;;;;;15.85;9.63;;;;;;;17.86;95.58;95898.06;2089308;28;20488;-58
2023/07/19 02:06:29;;;;;;;15.45;9.38;;;;;;;17.84;96.06;95892.91;2088805;28;20056;-58
2023/07/19 02:07:30;;;;;;;13.75;9.63;;;;;;;17.81;95.15;95892.31;2080833;28;20064;-58
2023/07/19 02:08:31;;;;;;;12.95;9.43;;;;;;;17.78;95.50;95880.25;2080960;28;20049;-58
2023/07/19 02:09:34;;;;;;;13.57;9.90;;;;;;;17.78;95.80;95888.13;2089021;28;20048;-58
2023/07/19 02:10:35;;;;;;;15.25;9.52;;;;;;;17.76;95.81;95892.66;2089421;28;20115;-58
2023/07/19 02:11:36;;;;;;;15.95;9.23;;;;;;;17.71;95.86;95884.28;2089180;28;20072;-58
2023/07/19 02:12:38;;;;;;;14.35;9.30;;;;;;;17.68;95.73;95895.03;2081017;28;20429;-58
2023/07/19 02:13:39;;;;;;;14.93;9.57;;;;;;;17.66;95.68;95896.09;2080584;28;20072;-58
2023/07/19 02:14:40;;;;;;;15.00;9.85;;;;;;;17.55;95.81;95878.53;2089113;28;20040;-58
2023/07/19 02:15:41;;;;;;;15.93;9.30;;;;;;;17.61;95.80;95893.81;2089027;28;20075;-56
2023/07/19 02:16:42;;;;;;;11.98;9.18;;;;;;;17.56;95.66;95888.94;2089108;28;20048;-56
2023/07/19 02:17:43;;;;;;;14.70;10.00;;;;;;;17.53;95.53;95886.53;2089017;28;20056;-57
2023/07/19 02:18:45;;;;;;;18.02;9.90;;;;;;;17.51;95.55;95887.59;2081355;28;20056;-56
2023/07/19 02:19:46;;;;;;;13.40;9.82;;;;;;;17.48;95.98;95885.22;2090606;28;20428;-56
2023/07/19 02:20:48;;;;;;;15.45;10.60;;;;;;;17.43;95.96;95880.34;2090943;28;20056;-56
2023/07/19 02:21:49;;;;;;;15.90;10.52;;;;;;;17.38;96.56;95882.47;2090656;28;20053;-56
2023/07/19 02:22:50;;;;;;;18.15;10.73;;;;;;;17.38;96.70;95882.47;2082176;28;20049;-56
2023/07/19 02:23:51;;;;;;;15.52;10.50;;;;;;;17.34;96.34;95876.59;2090769;28;20033;-56
2023/07/19 02:24:52;;;;;;;14.40;10.88;;;;;;;17.32;96.66;95883.78;2091455;28;20063;-56
2023/07/19 02:25:53;;;;;;;17.45;11.23;;;;;;;17.32;96.84;95880.28;2091306;28;20076;-56
2023/07/19 02:26:55;;;;;;;18.67;10.73;;;;;;;17.30;97.67;95872.56;2091347;28;20048;-56
2023/07/19 02:27:56;;;;;;;16.67;10.68;;;;;;;17.30;97.80;95877.81;2090574;28;20045;-56
2023/07/19 02:28:57;;;;;;;13.48;9.85;;;;;;;17.29;97.55;95881.34;2090437;28;20531;-56
2023/07/19 02:29:58;;;;;;;17.13;10.57;;;;;;;17.30;97.63;95884.84;2082361;28;20049;-56
2023/07/19 02:31:00;;;;;;;14.05;9.98;;;;;;;17.13;97.66;95849.38;2082686;28;20397;-56
2023/07/19 02:32:04;;;;;;;16.90;10.77;;;;;;;17.30;97.53;95877.81;2089967;28;20060;-56
2023/07/19 02:33:05;;;;;;;19.88;10.70;;;;;;;17.19;97.75;95860.25;2089883;28;20432;-56
2023/07/19 02:34:09;;;;;;;17.45;10.43;;;;;;;17.26;97.58;95875.50;2091096;28;20044;-56
2023/07/19 02:35:10;;;;;;;18.10;10.48;;;;;;;17.24;97.70;95872.16;2090658;28;20461;-56
2023/07/19 02:36:11;;;;;;;18.65;11.02;;;;;;;17.23;97.79;95866.09;2090711;28;20041;-56
2023/07/19 02:37:14;;;;;;;16.25;10.65;;;;;;;17.20;97.51;95871.56;2089792;28;20547;-55
2023/07/19 02:38:17;;;;;;;16.35;10.55;;;;;;;17.15;98.09;95863.22;2081731;28;20068;-56
2023/07/19 02:39:20;;;;;;;17.50;10.75;;;;;;;17.14;97.77;95872.03;2090321;28;20064;-56
2023/07/19 02:40:21;;;;;;;18.70;11.75;;;;;;;17.11;96.91;95867.03;2091097;28;20045;-56
2023/07/19 02:41:22;;;;;;;18.40;10.50;;;;;;;17.10;97.59;95870.59;2091078;28;20064;-56
2023/07/19 02:42:23;;;;;;;14.77;10.48;;;;;;;17.10;97.88;95874.03;2091262;28;20044;-56
2023/07/19 02:43:24;;;;;;;15.20;10.98;;;;;;;17.09;98.15;95877.63;2091101;28;20064;-56
2023/07/19 02:44:25;;;;;;;14.85;10.77;;;;;;;17.09;98.26;95879.41;2091013;28;20063;-56
2023/07/19 02:45:26;;;;;;;16.38;10.45;;;;;;;16.97;98.30;95861.03;2090393;28;20053;-56
2023/07/19 02:46:29;;;;;;;15.38;10.95;;;;;;;17.04;98.11;95876.31;2090469;28;20037;-56
2023/07/19 02:47:32;;;;;;;14.70;10.55;;;;;;;17.04;98.30;95876.31;2091095;28;20037;-56
2023/07/19 02:48:33;;;;;;;17.58;10.98;;;;;;;17.01;98.10;95881.78;2089995;28;20377;-56
2023/07/19 02:49:34;;;;;;;15.82;10.52;;;;;;;17.02;98.24;95878.19;2090146;28;20060;-56
2023/07/19 02:50:35;;;;;;;19.85;10.93;;;;;;;17.02;98.25;95867.69;2090326;28;20053;-56
2023/07/19 02:51:36;;;;;;;16.65;11.40;;;;;;;17.01;98.28;95872.13;2082130;28;20045;-56
2023/07/19 02:52:37;;;;;;;17.88;11.27;;;;;;;16.93;99.42;95859.56;2082192;28;20045;-56
2023/07/19 02:53:38;;;;;;;19.95;12.35;;;;;;;17.00;98.64;95864.34;2081334;28;20045;-56
2023/07/19 02:54:39;;;;;;;15.85;12.23;;;;;;;16.98;99.29;95869.72;2090376;28;20053;-56
2023/07/19 02:55:44;;;;;;;19.23;12.23;;;;;;;16.92;99.76;95863.16;2090346;28;20052;-56
2023/07/19 02:56:45;;;;;;;19.80;11.93;;;;;;;17.03;98.75;95874.63;2089993;28;20439;-56
2023/07/19 02:57:46;;;;;;;16.55;11.65;;;;;;;17.03;99.42;95875.47;2091000;28;20052;-56
2023/07/19 02:58:47;;;;;;;23.60;12.82;;;;;;;17.04;99.73;95871.88;2090025;28;20049;-56
2023/07/19 02:59:48;;;;;;;17.83;11.85;;;;;;;17.01;99.01;95872.13;2081872;28;20080;-56
2023/07/19 03:00:53;;;;;;;19.02;12.55;;;;;;;17.09;99.54;95871.56;2090414;28;20048;-56
2023/07/19 03:01:54;;;;;;;19.55;11.95;;;;;;;17.10;100.00;95868.78;2089978;28;20049;-56
2023/07/19 03:02:55;;;;;;;17.67;12.05;;;;;;;17.11;99.71;95880.16;2090026;28;20057;-56
2023/07/19 03:03:57;;;;;;;18.58;12.18;;;;;;;17.05;99.93;95854.34;2090553;28;20053;-56
2023/07/19 03:04:58;;;;;;;16.17;11.32;;;;;;;17.15;100.00;95874.53;2091210;28;20396;-56
2023/07/19 03:06:02;;;;;;;19.02;12.20;;;;;;;17.17;99.74;95872.63;2090112;28;20053;-56
2023/07/19 03:07:04;;;;;;;16.25;11.60;;;;;;;17.19;99.78;95883.03;2089711;28;20400;-56
2023/07/19 03:08:05;;;;;;;17.40;11.63;;;;;;;17.19;99.93;95877.78;2089710;28;20071;-56
2023/07/19 03:09:07;;;;;;;21.10;11.40;;;;;;;17.20;100.00;95879.44;2082284;28;20064;-56
2023/07/19 03:10:09;;;;;;;20.98;10.98;;;;;;;17.22;100.00;95879.34;2081806;28;20057;-56
2023/07/19 03:11:10;;;;;;;18.90;11.55;;;;;;;17.22;100.00;95882.78;2090201;28;20416;-56
2023/07/19 03:12:11;;;;;;;18.30;10.68;;;;;;;17.22;99.52;95880.16;2089785;28;20052;-56
2023/07/19 03:13:12;;;;;;;15.98;11.00;;;;;;;17.13;99.88;95865.09;2090256;28;20406;-56
2023/07/19 03:14:13;;;;;;;18.35;11.63;;;;;;;17.24;99.20;95880.03;2090807;28;20049;-56
2023/07/19 03:15:14;;;;;;;17.33;10.48;;;;;;;17.27;99.29;95880.66;2089698;28;20057;-56
2023/07/19 03:16:15;;;;;;;20.50;10.95;;;;;;;17.27;99.90;95885.91;2090255;28;20049;-56
2023/07/19 03:17:16;;;;;;;20.17;11.45;;;;;;;17.27;99.00;95883.28;2090084;28;20057;-56
2023/07/19 03:18:18;;;;;;;16.70;11.23;;;;;;;17.29;99.52;95883.97;2090126;28;20091;-56
2023/07/19 03:19:19;;;;;;;19.65;12.18;;;;;;;17.33;98.88;95871.47;2090905;28;20063;-56
2023/07/19 03:20:20;;;;;;;15.27;10.65;;;;;;;17.36;98.91;95881.75;2090465;28;20052;-56
2023/07/19 03:21:21;;;;;;;18.75;10.95;;;;;;;17.39;98.88;95887.59;2089416;28;20468;-56
2023/07/19 03:22:22;;;;;;;17.55;10.50;;;;;;;17.42;98.92;95884.72;2082184;28;20049;-56
2023/07/19 03:23:24;;;;;;;15.93;11.00;;;;;;;17.45;97.63;95885.44;2090102;28;20064;-56
2023/07/19 03:24:25;;;;;;;15.85;10.27;;;;;;;17.45;96.91;95878.41;2090074;28;20041;-57
2023/07/19 03:25:27;;;;;;;16.77;10.55;;;;;;;17.45;97.05;95877.56;2089829;28;20057;-56
2023/07/19 03:26:28;;;;;;;17.60;10.15;;;;;;;17.48;97.08;95878.19;2090280;28;20049;-55
2023/07/19 03:27:29;;;;;;;21.25;12.20;;;;;;;17.51;96.10;95877.09;2090811;28;20500;-56
2023/07/19 03:28:30;;;;;;;20.92;11.70;;;;;;;17.53;96.59;95877.81;2090153;28;20055;-56
2023/07/19 03:29:31;;;;;;;21.27;11.20;;;;;;;17.56;96.76;95872.31;2089401;28;20473;-56
2023/07/19 03:30:33;;;;;;;16.27;10.75;;;;;;;17.49;96.88;95861.47;2088838;28;20055;-56
2023/07/19 03:31:34;;;;;;;16.33;10.52;;;;;;;17.54;97.13;95861.97;2081892;28;20057;-56
2023/07/19 03:32:36;;;;;;;16.23;10.38;;;;;;;17.53;95.95;95868.16;2081649;28;20065;-56
2023/07/19 03:33:37;;;;;;;16.70;10.38;;;;;;;17.51;96.07;95871.84;2090637;28;20508;-56
2023/07/19 03:34:38;;;;;;;15.20;10.57;;;;;;;17.52;95.61;95876.16;2090819;28;20053;-56
2023/07/19 03:35:40;;;;;;;15.35;10.23;;;;;;;17.49;95.77;95877.22;2090308;28;20045;-56
2023/07/19 03:36:41;;;;;;;15.73;10.48;;;;;;;17.46;95.14;95877.47;2089972;28;20052;-56
2023/07/19 03:37:46;;;;;;;17.55;10.63;;;;;;;17.35;95.44;95862.53;2090107;28;20484;-56
2023/07/19 03:38:48;;;;;;;12.73;10.10;;;;;;;17.41;95.67;95875.19;2090086;28;20510;-55
2023/07/19 03:39:49;;;;;;;18.85;10.60;;;;;;;17.39;95.79;95869.22;2089961;28;20075;-56
2023/07/19 03:40:50;;;;;;;16.30;9.63;;;;;;;17.37;95.35;95870.28;2090586;28;20048;-56
2023/07/19 03:41:52;;;;;;;16.77;10.07;;;;;;;17.28;95.30;95850.00;2090598;28;20049;-56
2023/07/19 03:42:53;;;;;;;14.73;9.60;;;;;;;17.36;95.54;95872.06;2090583;28;20044;-56
2023/07/19 03:43:55;;;;;;;19.65;11.10;;;;;;;17.33;95.69;95863.59;2089885;28;20056;-56
2023/07/19 03:44:57;;;;;;;14.38;9.75;;;;;;;17.31;94.81;95868.97;2081326;28;20053;-56
2023/07/19 03:45:58;;;;;;;13.55;9.57;;;;;;;17.28;95.80;95863.13;2089594;28;20517;-56
2023/07/19 03:46:59;;;;;;;17.38;10.77;;;;;;;17.26;95.54;95865.03;2090247;28;20052;-56
2023/07/19 03:48:00;;;;;;;18.05;10.48;;;;;;;17.24;95.55;95861.66;2081684;28;20048;-56
2023/07/19 03:49:04;;;;;;;18.00;10.18;;;;;;;17.22;95.59;95863.59;2090022;28;20064;-56
2023/07/19 03:50:05;;;;;;;18.10;10.50;;;;;;;17.22;96.03;95867.06;2088973;28;20057;-57
2023/07/19 03:51:07;;;;;;;16.80;9.73;;;;;;;17.23;95.45;95873.97;2081440;28;20103;-56
2023/07/19 03:52:09;;;;;;;16.20;10.30;;;;;;;17.23;95.25;95866.09;2090167;28;20060;-56
2023/07/19 03:53:10;;;;;;;15.15;9.57;;;;;;;17.23;94.60;95870.50;2090055;28;20045;-56
2023/07/19 03:54:11;;;;;;;17.80;9.95;;;;;;;17.23;95.31;95873.97;2089229;28;20053;-57
2023/07/19 03:55:12;;;;;;;17.33;10.43;;;;;;;17.23;95.01;95865.25;2090110;28;20056;-56
2023/07/19 03:56:13;;;;;;;16.77;9.52;;;;;;;17.23;95.17;95876.59;2082093;28;20053;-57
2023/07/19 03:57:14;;;;;;;16.33;9.60;;;;;;;17.25;95.50;95865.97;2081552;28;20075;-56
2023/07/19 03:58:16;;;;;;;17.42;9.35;;;;;;;17.27;95.48;95864.91;2081654;28;20053;-56
2023/07/19 03:59:17;;;;;;;15.80;10.32;;;;;;;17.27;95.08;95867.53;2081563;28;20057;-56
2023/07/19 04:00:18;;;;;;;19.98;11.02;;;;;;;17.29;94.44;95864.78;2089804;28;20489;-56
2023/07/19 04:01:19;;;;;;;17.88;9.98;;;;;;;17.28;94.64;95861.31;2097406;28;20094;-56
2023/07/19 04:02:22;;;;;;;19.88;10.38;;;;;;;17.30;94.65;95867.31;2089746;28;20056;-56
2023/07/19 04:03:23;;;;;;;20.63;10.77;;;;;;;17.32;95.06;95867.16;2089864;28;20045;-57
2023/07/19 04:04:25;;;;;;;18.80;9.57;;;;;;;17.34;95.32;95866.09;2089500;28;20099;-57
2023/07/19 04:05:26;;;;;;;17.30;9.65;;;;;;;17.36;95.04;95866.81;2089752;28;20061;-56
2023/07/19 04:06:28;;;;;;;17.17;9.85;;;;;;;17.38;95.30;95866.72;2089540;28;20052;-57
2023/07/19 04:07:29;;;;;;;15.80;9.57;;;;;;;17.42;94.32;95860.28;2081440;28;20056;-57
2023/07/19 04:08:31;;;;;;;15.52;9.00;;;;;;;17.42;94.54;95860.28;2089775;28;20047;-57
2023/07/19 04:09:34;;;;;;;16.42;8.88;;;;;;;17.46;94.65;95860.88;2090252;28;20164;-57
2023/07/19 04:10:35;;;;;;;14.55;10.10;;;;;;;17.48;94.13;95865.06;2082235;28;20060;-56
2023/07/19 04:11:36;;;;;;;12.98;9.00;;;;;;;17.49;94.11;95860.66;2089430;28;20424;-56
2023/07/19 04:12:37;;;;;;;16.92;8.93;;;;;;;17.52;93.32;95860.41;2089395;28;20060;-56
2023/07/19 04:13:39;;;;;;;19.75;9.30;;;;;;;17.52;93.55;95857.78;2081595;28;20049;-57
2023/07/19 04:14:40;;;;;;;16.98;8.32;;;;;;;17.55;93.73;95857.53;2081134;28;20053;-57
2023/07/19 04:15:41;;;;;;;16.58;8.65;;;;;;;17.56;93.51;95857.44;2089415;28;20049;-57
2023/07/19 04:16:42;;;;;;;16.10;8.60;;;;;;;17.59;93.35;95856.38;2081577;28;20052;-56
2023/07/19 04:17:44;;;;;;;17.90;8.93;;;;;;;17.60;92.94;95858.03;2081436;28;20049;-57
2023/07/19 04:18:45;;;;;;;15.52;9.23;;;;;;;17.61;93.14;95855.28;2080872;28;20485;-56
2023/07/19 04:19:46;;;;;;;18.70;8.85;;;;;;;17.61;93.10;95847.41;2089380;28;20056;-56
2023/07/19 04:20:57;;;;;;;15.00;8.30;;;;;;;17.63;92.41;95856.00;2089627;28;20100;-57
2023/07/19 04:21:58;;;;;;;18.23;8.57;;;;;;;17.67;92.61;95851.34;2089503;28;20376;-56
2023/07/19 04:22:59;;;;;;;15.95;9.32;;;;;;;17.66;92.54;95849.66;2090187;28;20044;-56
2023/07/19 04:24:00;;;;;;;15.65;8.40;;;;;;;17.77;92.99;95854.06;2090240;28;20048;-56
2023/07/19 04:25:03;;;;;;;13.10;8.70;;;;;;;17.82;93.15;95860.66;2089566;28;20488;-57
2023/07/19 04:26:07;;;;;;;16.98;8.35;;;;;;;17.87;92.55;95852.44;2081125;28;20057;-57
2023/07/19 04:27:08;;;;;;;17.45;8.50;;;;;;;17.94;92.63;95858.06;2081353;28;20053;-57
2023/07/19 04:28:11;;;;;;;12.27;8.05;;;;;;;17.99;92.27;95859.38;2081206;28;20053;-57
2023/07/19 04:29:12;;;;;;;16.05;8.43;;;;;;;18.03;92.10;95858.16;2081321;28;20049;-57
2023/07/19 04:30:13;;;;;;;13.80;8.25;;;;;;;18.10;90.52;95869.03;2081272;28;20053;-57
2023/07/19 04:31:14;;;;;;;12.43;7.82;;;;;;;18.13;90.55;95860.91;2081222;28;20049;-56
2023/07/19 04:32:16;;;;;;;14.00;8.13;;;;;;;18.17;90.48;95864.09;2081381;28;20065;-57
2023/07/19 04:33:17;;;;;;;21.40;8.90;;;;;;;18.18;89.99;95861.38;2081492;28;20464;-56
2023/07/19 04:34:20;;;;;;;16.40;8.15;;;;;;;18.17;89.87;95864.09;2089915;28;20095;-56
2023/07/19 04:35:22;;;;;;;15.15;7.88;;;;;;;18.12;89.96;95848.69;2090127;28;20170;-56
2023/07/19 04:36:23;;;;;;;15.77;8.55;;;;;;;18.23;89.72;95867.09;2089166;28;20059;-56
2023/07/19 04:37:24;;;;;;;15.90;8.75;;;;;;;18.28;89.59;95870.19;2089602;28;20056;-57
2023/07/19 04:38:26;;;;;;;17.15;8.90;;;;;;;18.25;88.29;95870.41;2089436;28;20055;-56
2023/07/19 04:39:27;;;;;;;15.52;8.15;;;;;;;18.32;88.76;95876.03;2081002;28;20056;-56
2023/07/19 04:40:29;;;;;;;13.20;8.23;;;;;;;18.36;88.12;95876.59;2081698;28;20068;-56
2023/07/19 04:41:31;;;;;;;11.27;8.10;;;;;;;18.39;87.87;95876.34;2081385;28;20060;-56
2023/07/19 04:42:32;;;;;;;13.93;8.10;;;;;;;18.40;88.88;95878.06;2080885;28;20045;-57
2023/07/19 04:43:33;;;;;;;16.13;9.20;;;;;;;18.41;88.10;95883.16;2080898;28;20044;-57
2023/07/19 04:44:38;;;;;;;18.95;8.65;;;;;;;18.38;88.91;95882.59;2081290;28;20041;-56